sensor_id;sensor_type;location;lat;lon;timestamp;pressure;altitude;pressure_sealevel;temperature;humidity
17072;BME280;7731;50.720;6.912;2023-07-13T00:00:53;100020.75;;;17.42;63.66
17072;BME280;7731;50.720;6.912;2023-07-13T00:03:23;100022.91;;;17.25;65.18
17072;BME280;7731;50.720;6.912;2023-07-13T00:06:02;100023.47;;;17.29;65.35
17072;BME280;7731;50.720;6.912;2023-07-13T00:08:35;100033.09;;;17.17;65.72
17072;BME280;7731;50.720;6.912;2023-07-13T00:11:12;100029.78;;;17.04;66.90
17072;BME280;7731;50.720;6.912;2023-07-13T00:13:46;100024.03;;;17.00;67.49
17072;BME280;7731;50.720;6.912;2023-07-13T00:16:16;100034.03;;;16.82;68.90
17072;BME280;7731;50.720;6.912;2023-07-13T00:18:47;100037.09;;;16.76;69.86
17072;BME280;7731;50.720;6.912;2023-07-13T00:21:23;100031.94;;;16.99;68.49
17072;BME280;7731;50.720;6.912;2023-07-13T00:24:01;100031.81;;;16.89;68.25
17072;BME280;7731;50.720;6.912;2023-07-13T00:26:34;100028.63;;;16.96;68.97
17072;BME280;7731;50.720;6.912;2023-07-13T00:29:05;100023.66;;;16.93;69.16
17072;BME280;7731;50.720;6.912;2023-07-13T00:31:36;100024.09;;;16.65;71.05
17072;BME280;7731;50.720;6.912;2023-07-13T00:34:06;100032.13;;;16.61;70.96
17072;BME280;7731;50.720;6.912;2023-07-13T00:36:37;100023.66;;;16.59;71.98
17072;BME280;7731;50.720;6.912;2023-07-13T00:39:17;100023.03;;;16.45;72.32
17072;BME280;7731;50.720;6.912;2023-07-13T00:41:55;100021.25;;;16.34;73.44
17072;BME280;7731;50.720;6.912;2023-07-13T00:44:28;100021.88;;;16.37;73.76
17072;BME280;7731;50.720;6.912;2023-07-13T00:46:58;100013.25;;;16.37;72.92
17072;BME280;7731;50.720;6.912;2023-07-13T00:49:32;100011.81;;;16.21;75.18
17072;BME280;7731;50.720;6.912;2023-07-13T00:52:10;100014.16;;;16.24;74.61
17072;BME280;7731;50.720;6.912;2023-07-13T00:54:48;100013.00;;;16.17;74.72
17072;BME280;7731;50.720;6.912;2023-07-13T00:57:22;100006.31;;;16.37;73.54
17072;BME280;7731;50.720;6.912;2023-07-13T00:59:58;100012.19;;;16.51;73.27
17072;BME280;7731;50.720;6.912;2023-07-13T01:02:30;100011.63;;;16.47;73.24
17072;BME280;7731;50.720;6.912;2023-07-13T01:05:00;100010.41;;;16.40;72.68
17072;BME280;7731;50.720;6.912;2023-07-13T01:07:30;100013.97;;;16.39;73.07
17072;BME280;7731;50.720;6.912;2023-07-13T01:10:08;100022.91;;;16.35;73.92
17072;BME280;7731;50.720;6.912;2023-07-13T01:12:41;100014.09;;;16.49;72.23
17072;BME280;7731;50.720;6.912;2023-07-13T01:15:47;100008.28;;;16.22;74.63
17072;BME280;7731;50.720;6.912;2023-07-13T01:18:23;100019.13;;;16.16;75.01
17072;BME280;7731;50.720;6.912;2023-07-13T01:21:03;100027.66;;;15.94;77.41
17072;BME280;7731;50.720;6.912;2023-07-13T01:23:34;100025.72;;;16.20;75.84
17072;BME280;7731;50.720;6.912;2023-07-13T01:26:04;100020.56;;;15.85;78.23
17072;BME280;7731;50.720;6.912;2023-07-13T01:28:38;100019.06;;;15.94;77.73
17072;BME280;7731;50.720;6.912;2023-07-13T01:31:09;100022.72;;;15.91;77.58
17072;BME280;7731;50.720;6.912;2023-07-13T01:33:41;100019.97;;;15.81;78.77
17072;BME280;7731;50.720;6.912;2023-07-13T01:36:18;100017.22;;;16.07;76.83
17072;BME280;7731;50.720;6.912;2023-07-13T01:38:51;100025.72;;;16.20;75.60
17072;BME280;7731;50.720;6.912;2023-07-13T01:41:21;100014.56;;;15.84;78.20
17072;BME280;7731;50.720;6.912;2023-07-13T01:43:51;100012.00;;;15.96;77.73
17072;BME280;7731;50.720;6.912;2023-07-13T01:46:22;100015.75;;;15.92;77.68
17072;BME280;7731;50.720;6.912;2023-07-13T01:48:52;100018.31;;;16.16;76.48
17072;BME280;7731;50.720;6.912;2023-07-13T01:51:49;100019.81;;;16.07;76.79
17072;BME280;7731;50.720;6.912;2023-07-13T01:54:20;100022.63;;;16.04;76.89
17072;BME280;7731;50.720;6.912;2023-07-13T01:56:50;100023.66;;;16.01;77.33
17072;BME280;7731;50.720;6.912;2023-07-13T01:59:21;100027.56;;;15.96;78.64
17072;BME280;7731;50.720;6.912;2023-07-13T02:01:51;100023.56;;;16.03;78.21
17072;BME280;7731;50.720;6.912;2023-07-13T02:04:26;100017.88;;;15.86;78.10
17072;BME280;7731;50.720;6.912;2023-07-13T02:07:01;100026.25;;;16.01;78.55
17072;BME280;7731;50.720;6.912;2023-07-13T02:09:31;100025.91;;;15.95;78.63
17072;BME280;7731;50.720;6.912;2023-07-13T02:12:03;100021.69;;;16.05;78.06
17072;BME280;7731;50.720;6.912;2023-07-13T02:14:33;100023.50;;;15.80;79.35
17072;BME280;7731;50.720;6.912;2023-07-13T02:17:04;100029.28;;;15.84;79.27
17072;BME280;7731;50.720;6.912;2023-07-13T02:19:34;100028.94;;;15.88;79.97
17072;BME280;7731;50.720;6.912;2023-07-13T02:22:07;100024.84;;;15.73;80.51
17072;BME280;7731;50.720;6.912;2023-07-13T02:24:38;100032.63;;;15.73;79.95
17072;BME280;7731;50.720;6.912;2023-07-13T02:27:08;100027.44;;;15.73;79.81
17072;BME280;7731;50.720;6.912;2023-07-13T02:29:38;100020.72;;;15.46;81.73
17072;BME280;7731;50.720;6.912;2023-07-13T02:32:09;100027.94;;;15.30;83.89
17072;BME280;7731;50.720;6.912;2023-07-13T02:34:41;100030.31;;;15.33;83.65
17072;BME280;7731;50.720;6.912;2023-07-13T02:37:14;100035.72;;;15.30;83.33
17072;BME280;7731;50.720;6.912;2023-07-13T02:39:44;100034.47;;;15.23;83.77
17072;BME280;7731;50.720;6.912;2023-07-13T02:42:17;100031.50;;;15.40;82.21
17072;BME280;7731;50.720;6.912;2023-07-13T02:44:47;100021.25;;;15.14;84.07
17072;BME280;7731;50.720;6.912;2023-07-13T02:47:18;100015.53;;;15.22;83.87
17072;BME280;7731;50.720;6.912;2023-07-13T02:49:48;100017.22;;;15.10;84.32
17072;BME280;7731;50.720;6.912;2023-07-13T02:52:27;100010.38;;;15.22;83.86
17072;BME280;7731;50.720;6.912;2023-07-13T02:55:06;100019.66;;;15.49;81.70
17072;BME280;7731;50.720;6.912;2023-07-13T02:57:36;100028.22;;;15.38;81.85
17072;BME280;7731;50.720;6.912;2023-07-13T03:00:10;100031.03;;;15.35;82.63
17072;BME280;7731;50.720;6.912;2023-07-13T03:02:49;100026.63;;;15.48;80.85
17072;BME280;7731;50.720;6.912;2023-07-13T03:05:20;100028.44;;;15.35;80.27
17072;BME280;7731;50.720;6.912;2023-07-13T03:07:53;100030.81;;;15.62;79.22
17072;BME280;7731;50.720;6.912;2023-07-13T03:10:23;100029.31;;;15.23;82.16
17072;BME280;7731;50.720;6.912;2023-07-13T03:12:56;100031.66;;;15.26;81.58
17072;BME280;7731;50.720;6.912;2023-07-13T03:15:27;100032.81;;;15.22;83.11
17072;BME280;7731;50.720;6.912;2023-07-13T03:17:57;100034.41;;;15.48;80.94
17072;BME280;7731;50.720;6.912;2023-07-13T03:20:33;100040.09;;;15.16;82.51
17072;BME280;7731;50.720;6.912;2023-07-13T03:23:06;100043.03;;;15.36;82.56
17072;BME280;7731;50.720;6.912;2023-07-13T03:25:39;100038.19;;;15.31;83.96
17072;BME280;7731;50.720;6.912;2023-07-13T03:28:09;100046.28;;;15.27;85.06
17072;BME280;7731;50.720;6.912;2023-07-13T03:30:40;100041.34;;;15.11;85.78
17072;BME280;7731;50.720;6.912;2023-07-13T03:33:10;100049.84;;;15.00;86.95
17072;BME280;7731;50.720;6.912;2023-07-13T03:35:44;100050.81;;;15.36;84.08
17072;BME280;7731;50.720;6.912;2023-07-13T03:38:27;100052.44;;;15.37;84.25
17072;BME280;7731;50.720;6.912;2023-07-13T03:41:02;100050.66;;;15.13;85.41
17072;BME280;7731;50.720;6.912;2023-07-13T03:43:39;100059.59;;;14.96;86.73
17072;BME280;7731;50.720;6.912;2023-07-13T03:46:09;100052.09;;;15.17;86.39
17072;BME280;7731;50.720;6.912;2023-07-13T03:48:44;100055.41;;;15.20;85.71
17072;BME280;7731;50.720;6.912;2023-07-13T03:51:17;100058.81;;;15.20;85.99
17072;BME280;7731;50.720;6.912;2023-07-13T03:53:52;100052.06;;;15.30;85.30
17072;BME280;7731;50.720;6.912;2023-07-13T03:56:23;100064.38;;;15.27;85.33
17072;BME280;7731;50.720;6.912;2023-07-13T03:58:54;100052.22;;;15.40;85.45
17072;BME280;7731;50.720;6.912;2023-07-13T04:01:25;100059.22;;;15.27;85.98
17072;BME280;7731;50.720;6.912;2023-07-13T04:03:58;100065.31;;;15.26;85.75
17072;BME280;7731;50.720;6.912;2023-07-13T04:06:31;100062.25;;;15.45;84.24
17072;BME280;7731;50.720;6.912;2023-07-13T04:09:06;100068.31;;;15.57;84.30
17072;BME280;7731;50.720;6.912;2023-07-13T04:11:37;100072.44;;;15.35;85.28
17072;BME280;7731;50.720;6.912;2023-07-13T04:14:07;100070.28;;;15.29;85.93
17072;BME280;7731;50.720;6.912;2023-07-13T04:16:37;100074.63;;;15.28;86.53
17072;BME280;7731;50.720;6.912;2023-07-13T04:19:08;100072.59;;;15.45;85.18
17072;BME280;7731;50.720;6.912;2023-07-13T04:21:39;100078.47;;;15.60;83.70
17072;BME280;7731;50.720;6.912;2023-07-13T04:24:12;100071.44;;;15.49;85.89
17072;BME280;7731;50.720;6.912;2023-07-13T04:26:49;100081.56;;;15.28;88.53
17072;BME280;7731;50.720;6.912;2023-07-13T04:29:21;100080.38;;;15.69;85.16
17072;BME280;7731;50.720;6.912;2023-07-13T04:31:56;100076.09;;;15.57;86.23
17072;BME280;7731;50.720;6.912;2023-07-13T04:34:26;100080.81;;;15.63;85.39
17072;BME280;7731;50.720;6.912;2023-07-13T04:36:57;100078.38;;;16.10;83.42
17072;BME280;7731;50.720;6.912;2023-07-13T04:39:30;100077.94;;;15.92;82.94
17072;BME280;7731;50.720;6.912;2023-07-13T04:42:03;100084.97;;;15.65;85.35
17072;BME280;7731;50.720;6.912;2023-07-13T04:44:33;100086.50;;;15.68;86.13
17072;BME280;7731;50.720;6.912;2023-07-13T04:47:06;100082.94;;;16.06;83.19
17072;BME280;7731;50.720;6.912;2023-07-13T04:49:40;100083.81;;;16.18;83.34
17072;BME280;7731;50.720;6.912;2023-07-13T04:52:13;100089.97;;;16.28;82.11
17072;BME280;7731;50.720;6.912;2023-07-13T04:54:46;100089.75;;;16.42;80.74
17072;BME280;7731;50.720;6.912;2023-07-13T04:57:16;100088.47;;;16.59;80.08
17072;BME280;7731;50.720;6.912;2023-07-13T04:59:50;100087.63;;;16.36;83.25
17072;BME280;7731;50.720;6.912;2023-07-13T05:02:23;100097.47;;;16.67;80.35
17072;BME280;7731;50.720;6.912;2023-07-13T05:04:55;100083.53;;;16.68;80.01
17072;BME280;7731;50.720;6.912;2023-07-13T05:07:38;100094.63;;;16.70;80.25
17072;BME280;7731;50.720;6.912;2023-07-13T05:10:11;100091.22;;;16.81;80.39
17072;BME280;7731;50.720;6.912;2023-07-13T05:12:46;100100.53;;;16.72;81.74
17072;BME280;7731;50.720;6.912;2023-07-13T05:15:27;100094.41;;;17.18;78.58
17072;BME280;7731;50.720;6.912;2023-07-13T05:18:10;100107.41;;;17.07;80.21
17072;BME280;7731;50.720;6.912;2023-07-13T05:20:40;100104.09;;;17.27;80.06
17072;BME280;7731;50.720;6.912;2023-07-13T05:23:10;100109.50;;;18.02;77.58
17072;BME280;7731;50.720;6.912;2023-07-13T05:25:43;100093.84;;;19.97;65.59
17072;BME280;7731;50.720;6.912;2023-07-13T05:28:13;100098.16;;;21.76;55.93
17072;BME280;7731;50.720;6.912;2023-07-13T05:30:51;100093.41;;;22.60;51.48
17072;BME280;7731;50.720;6.912;2023-07-13T05:33:22;100099.34;;;23.56;48.79
17072;BME280;7731;50.720;6.912;2023-07-13T05:35:53;100095.22;;;23.36;47.30
17072;BME280;7731;50.720;6.912;2023-07-13T05:38:26;100100.97;;;22.01;51.52
17072;BME280;7731;50.720;6.912;2023-07-13T05:40:59;100094.00;;;22.27;51.02
17072;BME280;7731;50.720;6.912;2023-07-13T05:43:35;100095.06;;;22.17;51.52
17072;BME280;7731;50.720;6.912;2023-07-13T05:46:06;100100.50;;;22.23;52.11
17072;BME280;7731;50.720;6.912;2023-07-13T05:48:45;100102.53;;;24.09;47.41
17072;BME280;7731;50.720;6.912;2023-07-13T05:51:16;100095.00;;;25.57;41.93
17072;BME280;7731;50.720;6.912;2023-07-13T05:53:46;100100.78;;;23.42;46.99
17072;BME280;7731;50.720;6.912;2023-07-13T05:56:19;100102.06;;;25.57;42.31
17072;BME280;7731;50.720;6.912;2023-07-13T05:58:49;100090.81;;;26.62;39.53
17072;BME280;7731;50.720;6.912;2023-07-13T06:01:20;100106.00;;;26.07;39.81
17072;BME280;7731;50.720;6.912;2023-07-13T06:04:00;100101.22;;;28.17;36.14
17072;BME280;7731;50.720;6.912;2023-07-13T06:06:30;100097.28;;;27.41;37.08
17072;BME280;7731;50.720;6.912;2023-07-13T06:09:01;100102.00;;;28.45;34.68
17072;BME280;7731;50.720;6.912;2023-07-13T06:11:45;100108.47;;;27.86;35.47
17072;BME280;7731;50.720;6.912;2023-07-13T06:14:15;100108.28;;;26.10;39.74
17072;BME280;7731;50.720;6.912;2023-07-13T06:16:45;100106.94;;;24.41;42.83
17072;BME280;7731;50.720;6.912;2023-07-13T06:19:18;100112.88;;;24.91;42.64
17072;BME280;7731;50.720;6.912;2023-07-13T06:21:52;100115.53;;;26.08;39.41
17072;BME280;7731;50.720;6.912;2023-07-13T06:24:24;100110.34;;;28.14;35.35
17072;BME280;7731;50.720;6.912;2023-07-13T06:26:59;100112.03;;;28.85;33.73
17072;BME280;7731;50.720;6.912;2023-07-13T06:29:38;100121.00;;;26.22;38.13
17072;BME280;7731;50.720;6.912;2023-07-13T06:32:11;100124.94;;;25.79;39.82
17072;BME280;7731;50.720;6.912;2023-07-13T06:34:42;100127.44;;;25.10;40.93
17072;BME280;7731;50.720;6.912;2023-07-13T06:37:12;100125.16;;;24.42;42.96
17072;BME280;7731;50.720;6.912;2023-07-13T06:39:42;100122.78;;;25.60;40.57
17072;BME280;7731;50.720;6.912;2023-07-13T06:42:17;100129.88;;;25.20;41.50
17072;BME280;7731;50.720;6.912;2023-07-13T06:44:48;100130.50;;;25.22;40.88
17072;BME280;7731;50.720;6.912;2023-07-13T06:47:27;100130.44;;;24.99;41.14
17072;BME280;7731;50.720;6.912;2023-07-13T06:50:00;100142.31;;;25.26;42.03
17072;BME280;7731;50.720;6.912;2023-07-13T06:52:34;100126.59;;;27.16;37.12
17072;BME280;7731;50.720;6.912;2023-07-13T06:55:06;100132.66;;;28.61;34.70
17072;BME280;7731;50.720;6.912;2023-07-13T06:57:39;100132.03;;;27.44;37.17
17072;BME280;7731;50.720;6.912;2023-07-13T07:00:11;100127.38;;;31.17;30.79
17072;BME280;7731;50.720;6.912;2023-07-13T07:02:44;100127.28;;;28.83;32.62
17072;BME280;7731;50.720;6.912;2023-07-13T07:05:15;100126.69;;;30.83;31.78
17072;BME280;7731;50.720;6.912;2023-07-13T07:07:50;100125.31;;;31.58;29.38
17072;BME280;7731;50.720;6.912;2023-07-13T07:10:21;100143.50;;;27.22;36.24
17072;BME280;7731;50.720;6.912;2023-07-13T07:13:04;100147.25;;;26.98;37.34
17072;BME280;7731;50.720;6.912;2023-07-13T07:15:37;100144.44;;;28.65;34.74
17072;BME280;7731;50.720;6.912;2023-07-13T07:18:07;100150.72;;;26.98;37.77
17072;BME280;7731;50.720;6.912;2023-07-13T07:20:40;100149.84;;;27.79;36.62
17072;BME280;7731;50.720;6.912;2023-07-13T07:23:10;100156.28;;;26.50;37.53
17072;BME280;7731;50.720;6.912;2023-07-13T07:25:45;100169.25;;;25.28;40.20
17072;BME280;7731;50.720;6.912;2023-07-13T07:28:20;100158.97;;;27.98;35.24
17072;BME280;7731;50.720;6.912;2023-07-13T07:30:55;100171.84;;;24.96;40.83
17072;BME280;7731;50.720;6.912;2023-07-13T07:33:29;100159.91;;;25.34;40.21
17072;BME280;7731;50.720;6.912;2023-07-13T07:36:01;100159.78;;;26.13;40.65
17072;BME280;7731;50.720;6.912;2023-07-13T07:38:34;100165.53;;;24.25;42.46
17072;BME280;7731;50.720;6.912;2023-07-13T07:41:05;100164.00;;;24.80;43.45
17072;BME280;7731;50.720;6.912;2023-07-13T07:43:41;100160.63;;;26.28;38.96
17072;BME280;7731;50.720;6.912;2023-07-13T07:46:11;100164.41;;;25.56;40.75
17072;BME280;7731;50.720;6.912;2023-07-13T07:48:44;100153.81;;;27.53;36.55
17072;BME280;7731;50.720;6.912;2023-07-13T07:51:14;100152.75;;;28.97;34.21
17072;BME280;7731;50.720;6.912;2023-07-13T07:53:44;100154.09;;;30.57;31.28
17072;BME280;7731;50.720;6.912;2023-07-13T07:56:17;100156.63;;;28.10;34.23
17072;BME280;7731;50.720;6.912;2023-07-13T07:58:53;100146.53;;;29.73;32.02
17072;BME280;7731;50.720;6.912;2023-07-13T08:01:29;100144.13;;;29.92;32.90
17072;BME280;7731;50.720;6.912;2023-07-13T08:04:02;100150.81;;;30.55;30.55
17072;BME280;7731;50.720;6.912;2023-07-13T08:06:36;100143.78;;;31.39;29.84
17072;BME280;7731;50.720;6.912;2023-07-13T08:09:11;100154.34;;;29.33;31.37
17072;BME280;7731;50.720;6.912;2023-07-13T08:11:42;100141.41;;;30.72;30.53
17072;BME280;7731;50.720;6.912;2023-07-13T08:14:18;100146.59;;;31.12;29.65
17072;BME280;7731;50.720;6.912;2023-07-13T08:16:54;100142.41;;;32.26;27.28
17072;BME280;7731;50.720;6.912;2023-07-13T08:19:25;100144.94;;;28.76;31.50
17072;BME280;7731;50.720;6.912;2023-07-13T08:21:55;100140.44;;;30.06;31.23
17072;BME280;7731;50.720;6.912;2023-07-13T08:24:25;100133.94;;;32.91;26.54
17072;BME280;7731;50.720;6.912;2023-07-13T08:26:58;100133.28;;;30.27;29.99
17072;BME280;7731;50.720;6.912;2023-07-13T08:29:34;100138.13;;;27.45;34.76
17072;BME280;7731;50.720;6.912;2023-07-13T08:32:06;100135.88;;;28.07;33.87
17072;BME280;7731;50.720;6.912;2023-07-13T08:34:38;100135.75;;;28.15;34.40
17072;BME280;7731;50.720;6.912;2023-07-13T08:37:09;100141.72;;;26.93;35.57
17072;BME280;7731;50.720;6.912;2023-07-13T08:39:39;100137.16;;;27.68;34.16
17072;BME280;7731;50.720;6.912;2023-07-13T08:42:21;100131.97;;;27.81;34.01
17072;BME280;7731;50.720;6.912;2023-07-13T08:45:11;100135.13;;;26.44;36.77
17072;BME280;7731;50.720;6.912;2023-07-13T08:47:49;100133.59;;;26.49;36.33
17072;BME280;7731;50.720;6.912;2023-07-13T08:50:31;100130.97;;;27.60;35.03
17072;BME280;7731;50.720;6.912;2023-07-13T08:53:28;100131.34;;;26.46;36.12
17072;BME280;7731;50.720;6.912;2023-07-13T08:56:01;100131.63;;;27.11;35.93
17072;BME280;7731;50.720;6.912;2023-07-13T08:58:41;100146.97;;;25.78;37.64
17072;BME280;7731;50.720;6.912;2023-07-13T09:01:24;100146.41;;;25.68;37.46
17072;BME280;7731;50.720;6.912;2023-07-13T09:04:14;100137.88;;;24.87;39.50
17072;BME280;7731;50.720;6.912;2023-07-13T09:07:00;100140.56;;;24.70;39.65
17072;BME280;7731;50.720;6.912;2023-07-13T09:09:50;100141.50;;;25.25;38.65
17072;BME280;7731;50.720;6.912;2023-07-13T09:12:32;100148.50;;;25.49;38.78
17072;BME280;7731;50.720;6.912;2023-07-13T09:15:22;100134.25;;;26.96;36.58
17072;BME280;7731;50.720;6.912;2023-07-13T09:18:00;100135.25;;;27.83;35.51
17072;BME280;7731;50.720;6.912;2023-07-13T09:20:40;100138.22;;;27.37;35.13
17072;BME280;7731;50.720;6.912;2023-07-13T09:23:21;100128.25;;;26.58;36.05
17072;BME280;7731;50.720;6.912;2023-07-13T09:25:58;100138.16;;;26.55;37.48
17072;BME280;7731;50.720;6.912;2023-07-13T09:28:37;100137.91;;;24.54;40.64
17072;BME280;7731;50.720;6.912;2023-07-13T09:31:14;100143.09;;;24.95;42.26
17072;BME280;7731;50.720;6.912;2023-07-13T09:33:52;100136.63;;;24.66;42.01
17072;BME280;7731;50.720;6.912;2023-07-13T09:36:26;100113.88;;;27.56;36.05
17072;BME280;7731;50.720;6.912;2023-07-13T09:39:08;100136.09;;;25.19;40.55
17072;BME280;7731;50.720;6.912;2023-07-13T09:41:49;100126.41;;;26.28;38.17
17072;BME280;7731;50.720;6.912;2023-07-13T09:44:36;100132.16;;;27.06;35.24
17072;BME280;7731;50.720;6.912;2023-07-13T09:47:18;100129.22;;;27.46;34.65
17072;BME280;7731;50.720;6.912;2023-07-13T09:50:01;100136.50;;;26.54;34.97
17072;BME280;7731;50.720;6.912;2023-07-13T09:52:42;100130.66;;;28.13;32.71
17072;BME280;7731;50.720;6.912;2023-07-13T09:55:30;100139.25;;;27.06;33.09
17072;BME280;7731;50.720;6.912;2023-07-13T09:58:12;100135.72;;;26.84;34.31
17072;BME280;7731;50.720;6.912;2023-07-13T10:00:54;100150.97;;;26.20;35.83
17072;BME280;7731;50.720;6.912;2023-07-13T10:03:28;100139.03;;;26.63;32.94
17072;BME280;7731;50.720;6.912;2023-07-13T10:06:22;100140.34;;;26.97;32.37
17072;BME280;7731;50.720;6.912;2023-07-13T10:08:57;100146.56;;;26.74;33.17
17072;BME280;7731;50.720;6.912;2023-07-13T10:11:29;100144.16;;;27.09;32.52
17072;BME280;7731;50.720;6.912;2023-07-13T10:14:16;100149.22;;;25.90;35.27
17072;BME280;7731;50.720;6.912;2023-07-13T10:16:59;100134.63;;;28.03;33.34
17072;BME280;7731;50.720;6.912;2023-07-13T10:19:34;100149.03;;;25.68;34.77
17072;BME280;7731;50.720;6.912;2023-07-13T10:22:22;100150.41;;;26.10;34.50
17072;BME280;7731;50.720;6.912;2023-07-13T10:24:55;100134.75;;;27.73;32.76
17072;BME280;7731;50.720;6.912;2023-07-13T10:27:34;100135.28;;;29.71;30.36
17072;BME280;7731;50.720;6.912;2023-07-13T10:30:14;100141.69;;;28.80;29.96
17072;BME280;7731;50.720;6.912;2023-07-13T10:32:47;100136.66;;;28.57;29.80
17072;BME280;7731;50.720;6.912;2023-07-13T10:35:24;100148.31;;;28.41;30.56
17072;BME280;7731;50.720;6.912;2023-07-13T10:38:05;100141.13;;;28.57;28.74
17072;BME280;7731;50.720;6.912;2023-07-13T10:40:39;100156.50;;;28.75;29.70
17072;BME280;7731;50.720;6.912;2023-07-13T10:43:19;100155.31;;;28.49;29.84
17072;BME280;7731;50.720;6.912;2023-07-13T10:45:51;100150.25;;;28.82;29.12
17072;BME280;7731;50.720;6.912;2023-07-13T10:48:24;100160.41;;;29.96;28.58
17072;BME280;7731;50.720;6.912;2023-07-13T10:50:55;100158.38;;;28.03;31.38
17072;BME280;7731;50.720;6.912;2023-07-13T10:53:42;100181.78;;;25.89;33.93
17072;BME280;7731;50.720;6.912;2023-07-13T10:56:27;100174.47;;;25.53;34.89
17072;BME280;7731;50.720;6.912;2023-07-13T10:59:13;100178.94;;;24.96;37.15
17072;BME280;7731;50.720;6.912;2023-07-13T11:01:57;100175.44;;;25.52;35.36
17072;BME280;7731;50.720;6.912;2023-07-13T11:04:40;100178.59;;;24.99;36.80
17072;BME280;7731;50.720;6.912;2023-07-13T11:07:21;100187.66;;;24.88;36.71
17072;BME280;7731;50.720;6.912;2023-07-13T11:09:57;100181.28;;;24.66;37.17
17072;BME280;7731;50.720;6.912;2023-07-13T11:12:51;100185.88;;;24.48;38.51
17072;BME280;7731;50.720;6.912;2023-07-13T11:15:42;100176.19;;;24.32;37.05
17072;BME280;7731;50.720;6.912;2023-07-13T11:18:23;100181.19;;;23.76;37.67
17072;BME280;7731;50.720;6.912;2023-07-13T11:21:14;100176.03;;;24.41;35.92
17072;BME280;7731;50.720;6.912;2023-07-13T11:24:16;100188.00;;;24.85;36.61
17072;BME280;7731;50.720;6.912;2023-07-13T11:26:56;100180.63;;;24.39;37.30
17072;BME280;7731;50.720;6.912;2023-07-13T11:29:36;100188.00;;;24.03;37.45
17072;BME280;7731;50.720;6.912;2023-07-13T11:32:24;100190.44;;;24.13;37.65
17072;BME280;7731;50.720;6.912;2023-07-13T11:34:55;100186.81;;;23.89;38.43
17072;BME280;7731;50.720;6.912;2023-07-13T11:37:28;100193.09;;;24.29;38.62
17072;BME280;7731;50.720;6.912;2023-07-13T11:39:59;100189.06;;;22.98;40.50
17072;BME280;7731;50.720;6.912;2023-07-13T11:42:35;100193.16;;;23.19;39.08
17072;BME280;7731;50.720;6.912;2023-07-13T11:45:20;100192.34;;;23.78;38.19
17072;BME280;7731;50.720;6.912;2023-07-13T11:48:25;100189.81;;;23.51;38.76
17072;BME280;7731;50.720;6.912;2023-07-13T11:51:00;100188.03;;;23.60;38.81
17072;BME280;7731;50.720;6.912;2023-07-13T11:53:45;100185.72;;;23.49;38.81
17072;BME280;7731;50.720;6.912;2023-07-13T11:56:16;100183.81;;;23.76;38.18
17072;BME280;7731;50.720;6.912;2023-07-13T11:58:55;100182.59;;;24.29;37.86
17072;BME280;7731;50.720;6.912;2023-07-13T12:01:33;100188.75;;;25.02;36.65
17072;BME280;7731;50.720;6.912;2023-07-13T12:04:28;100186.34;;;25.40;36.18
17072;BME280;7731;50.720;6.912;2023-07-13T12:07:07;100191.41;;;25.50;36.63
17072;BME280;7731;50.720;6.912;2023-07-13T12:09:37;100202.59;;;24.05;40.45
17072;BME280;7731;50.720;6.912;2023-07-13T12:12:14;100204.78;;;23.76;42.59
17072;BME280;7731;50.720;6.912;2023-07-13T12:14:51;100217.84;;;23.51;41.60
17072;BME280;7731;50.720;6.912;2023-07-13T12:17:26;100206.63;;;23.32;42.50
17072;BME280;7731;50.720;6.912;2023-07-13T12:20:09;100210.47;;;23.12;42.51
17072;BME280;7731;50.720;6.912;2023-07-13T12:22:46;100209.63;;;23.11;43.55
17072;BME280;7731;50.720;6.912;2023-07-13T12:25:18;100206.59;;;23.24;42.21
17072;BME280;7731;50.720;6.912;2023-07-13T12:27:50;100206.22;;;24.21;41.40
17072;BME280;7731;50.720;6.912;2023-07-13T12:30:33;100200.44;;;23.84;41.22
17072;BME280;7731;50.720;6.912;2023-07-13T12:33:12;100195.88;;;24.44;40.59
17072;BME280;7731;50.720;6.912;2023-07-13T12:35:47;100204.09;;;24.82;39.28
17072;BME280;7731;50.720;6.912;2023-07-13T12:38:19;100199.06;;;23.80;40.58
17072;BME280;7731;50.720;6.912;2023-07-13T12:40:52;100200.81;;;24.31;40.42
17072;BME280;7731;50.720;6.912;2023-07-13T12:43:36;100201.00;;;24.37;37.70
17072;BME280;7731;50.720;6.912;2023-07-13T12:46:19;100209.38;;;23.74;39.24
17072;BME280;7731;50.720;6.912;2023-07-13T12:48:58;100212.47;;;24.77;37.16
17072;BME280;7731;50.720;6.912;2023-07-13T12:51:49;100213.13;;;24.55;37.11
17072;BME280;7731;50.720;6.912;2023-07-13T12:54:20;100205.56;;;24.52;36.47
17072;BME280;7731;50.720;6.912;2023-07-13T12:56:53;100206.56;;;24.34;36.84
17072;BME280;7731;50.720;6.912;2023-07-13T12:59:30;100207.88;;;24.38;37.32
17072;BME280;7731;50.720;6.912;2023-07-13T13:02:28;100197.75;;;25.08;37.04
17072;BME280;7731;50.720;6.912;2023-07-13T13:04:59;100211.41;;;25.03;37.47
17072;BME280;7731;50.720;6.912;2023-07-13T13:07:31;100214.50;;;25.15;37.25
17072;BME280;7731;50.720;6.912;2023-07-13T13:10:11;100212.47;;;24.28;39.09
17072;BME280;7731;50.720;6.912;2023-07-13T13:12:50;100204.59;;;24.53;38.41
17072;BME280;7731;50.720;6.912;2023-07-13T13:15:23;100204.56;;;24.45;39.50
17072;BME280;7731;50.720;6.912;2023-07-13T13:17:59;100203.75;;;24.77;38.46
17072;BME280;7731;50.720;6.912;2023-07-13T13:20:29;100199.66;;;24.33;39.48
17072;BME280;7731;50.720;6.912;2023-07-13T13:23:00;100198.91;;;25.13;38.29
17072;BME280;7731;50.720;6.912;2023-07-13T13:25:33;100201.41;;;25.07;37.85
17072;BME280;7731;50.720;6.912;2023-07-13T13:28:04;100203.44;;;25.28;37.52
17072;BME280;7731;50.720;6.912;2023-07-13T13:30:35;100212.00;;;24.57;37.63
17072;BME280;7731;50.720;6.912;2023-07-13T13:33:11;100184.88;;;24.49;38.50
17072;BME280;7731;50.720;6.912;2023-07-13T13:35:42;100195.41;;;24.40;38.86
17072;BME280;7731;50.720;6.912;2023-07-13T13:38:14;100197.63;;;25.57;38.39
17072;BME280;7731;50.720;6.912;2023-07-13T13:40:45;100193.66;;;25.13;37.78
17072;BME280;7731;50.720;6.912;2023-07-13T13:43:22;100194.50;;;25.85;36.59